TimeEDT,TemperatureF,Dew PointF,Humidity,Sea Level PressureIn,VisibilityMPH,Wind Direction,Wind SpeedMPH,Gust SpeedMPH,PrecipitationIn,Events,Conditions,WindDirDegrees,DateUTC
12:54 AM,73.0,69.1,87,29.93,10.0,North,8.1,-,N/A,,Clear,360,2013-07-12 04:54:00
1:54 AM,71.1,68.0,90,29.94,10.0,NNE,10.4,-,N/A,,Clear,20,2013-07-12 05:54:00
2:54 AM,71.1,64.0,78,29.95,10.0,NNE,13.8,-,N/A,,Scattered Clouds,20,2013-07-12 06:54:00
3:54 AM,70.0,64.0,81,29.98,10.0,NE,16.1,-,N/A,,Mostly Cloudy,40,2013-07-12 07:54:00
4:54 AM,69.1,63.0,81,30.01,10.0,NNE,15.0,-,N/A,,Mostly Cloudy,30,2013-07-12 08:54:00
5:54 AM,70.0,59.0,68,30.03,10.0,NNE,12.7,-,N/A,,Mostly Cloudy,30,2013-07-12 09:54:00
6:54 AM,70.0,57.9,65,30.04,10.0,NE,13.8,-,N/A,,Mostly Cloudy,40,2013-07-12 10:54:00
7:54 AM,71.1,59.0,66,30.06,10.0,NNE,19.6,25.3,N/A,,Mostly Cloudy,30,2013-07-12 11:54:00
8:54 AM,71.1,59.0,66,30.07,10.0,NE,18.4,-,N/A,,Mostly Cloudy,40,2013-07-12 12:54:00
9:54 AM,72.0,59.0,64,30.09,10.0,NNE,19.6,25.3,N/A,,Mostly Cloudy,30,2013-07-12 13:54:00
10:51 AM,71.6,59.0,64,30.12,10.0,ENE,13.8,23.0,N/A,,Overcast,60,2013-07-12 14:51:00
10:54 AM,72.0,59.0,64,30.12,10.0,NE,16.1,23.0,N/A,,Overcast,40,2013-07-12 14:54:00
11:54 AM,72.0,57.9,61,30.13,10.0,NE,17.3,-,N/A,,Overcast,40,2013-07-12 15:54:00
12:54 PM,70.0,57.0,63,30.13,10.0,ENE,12.7,23.0,N/A,,Overcast,70,2013-07-12 16:54:00
1:54 PM,70.0,57.0,63,30.13,10.0,NE,13.8,23.0,N/A,,Overcast,50,2013-07-12 17:54:00
2:11 PM,71.6,57.2,60,30.13,10.0,ENE,15.0,24.2,N/A,,Overcast,60,2013-07-12 18:11:00
2:54 PM,73.0,59.0,61,30.13,10.0,ENE,13.8,-,N/A,,Mostly Cloudy,60,2013-07-12 18:54:00
3:54 PM,72.0,59.0,64,30.13,10.0,NE,12.7,-,N/A,,Mostly Cloudy,50,2013-07-12 19:54:00
4:54 PM,71.1,57.9,63,30.14,10.0,ENE,13.8,-,N/A,,Mostly Cloudy,70,2013-07-12 20:54:00
5:54 PM,70.0,59.0,68,30.14,10.0,ENE,13.8,-,N/A,,Mostly Cloudy,70,2013-07-12 21:54:00
6:54 PM,69.1,60.1,73,30.15,10.0,ENE,11.5,-,N/A,,Mostly Cloudy,60,2013-07-12 22:54:00
7:54 PM,66.9,60.1,79,30.16,10.0,ENE,9.2,-,N/A,,Mostly Cloudy,70,2013-07-12 23:54:00
8:54 PM,66.9,60.1,79,30.17,10.0,ENE,8.1,-,N/A,,Mostly Cloudy,70,2013-07-13 00:54:00
9:54 PM,66.9,60.1,79,30.18,10.0,East,8.1,-,N/A,,Mostly Cloudy,90,2013-07-13 01:54:00
10:54 PM,66.0,61.0,84,30.19,10.0,East,6.9,-,N/A,,Mostly Cloudy,90,2013-07-13 02:54:00
11:54 PM,66.0,62.1,87,30.20,10.0,East,5.8,-,N/A,,Overcast,90,2013-07-13 03:54:00